sensor_id;sensor_type;location;lat;lon;timestamp;pressure;altitude;pressure_sealevel;temperature;humidity
24746;BME280;12845;52.042;6.838;2023-05-08T00:01:30;-18441.56;;;15.38;100.00
24746;BME280;12845;52.042;6.838;2023-05-08T00:03:55;-18441.16;;;15.37;100.00
24746;BME280;12845;52.042;6.838;2023-05-08T00:06:20;-18441.03;;;15.36;100.00
24746;BME280;12845;52.042;6.838;2023-05-08T00:08:46;-18440.34;;;15.33;100.00
24746;BME280;12845;52.042;6.838;2023-05-08T00:11:11;-18441.31;;;15.37;100.00
24746;BME280;12845;52.042;6.838;2023-05-08T00:13:36;-18440.63;;;15.34;100.00
24746;BME280;12845;52.042;6.838;2023-05-08T00:16:01;-18441.44;;;15.38;100.00
24746;BME280;12845;52.042;6.838;2023-05-08T00:18:27;-18434.72;;;15.12;100.00
24746;BME280;12845;52.042;6.838;2023-05-08T00:20:52;-18431.59;;;15.01;100.00
24746;BME280;12845;52.042;6.838;2023-05-08T00:23:17;-18436.50;;;15.19;100.00
24746;BME280;12845;52.042;6.838;2023-05-08T00:25:42;-18435.84;;;15.17;100.00
24746;BME280;12845;52.042;6.838;2023-05-08T00:28:08;-18438.28;;;15.26;100.00
24746;BME280;12845;52.042;6.838;2023-05-08T00:30:33;-18437.06;;;15.21;100.00
24746;BME280;12845;52.042;6.838;2023-05-08T00:32:58;-18428.84;;;14.91;100.00
24746;BME280;12845;52.042;6.838;2023-05-08T00:35:24;-18427.91;;;14.87;100.00
24746;BME280;12845;52.042;6.838;2023-05-08T00:37:49;-18432.00;;;15.02;100.00
24746;BME280;12845;52.042;6.838;2023-05-08T00:40:14;-18429.81;;;14.94;100.00
24746;BME280;12845;52.042;6.838;2023-05-08T00:42:40;-18425.72;;;14.79;100.00
24746;BME280;12845;52.042;6.838;2023-05-08T00:45:05;-18424.75;;;14.75;100.00
24746;BME280;12845;52.042;6.838;2023-05-08T00:47:31;-18424.59;;;14.75;100.00
24746;BME280;12845;52.042;6.838;2023-05-08T00:49:57;-18422.97;;;14.69;100.00
24746;BME280;12845;52.042;6.838;2023-05-08T00:52:22;-18421.72;;;14.64;100.00
24746;BME280;12845;52.042;6.838;2023-05-08T00:54:48;-18418.03;;;14.50;100.00
24746;BME280;12845;52.042;6.838;2023-05-08T00:57:14;-18418.59;;;14.52;100.00
24746;BME280;12845;52.042;6.838;2023-05-08T00:59:40;-18422.69;;;14.68;100.00
24746;BME280;12845;52.042;6.838;2023-05-08T01:02:07;-18422.16;;;14.65;100.00
24746;BME280;12845;52.042;6.838;2023-05-08T01:04:33;-18421.88;;;14.64;100.00
24746;BME280;12845;52.042;6.838;2023-05-08T01:07:00;-18421.59;;;14.63;100.00
24746;BME280;12845;52.042;6.838;2023-05-08T01:09:25;-18420.38;;;14.59;100.00
24746;BME280;12845;52.042;6.838;2023-05-08T01:11:59;-18417.75;;;14.49;100.00
24746;BME280;12845;52.042;6.838;2023-05-08T01:14:41;-18422.00;;;14.65;100.00
24746;BME280;12845;52.042;6.838;2023-05-08T01:19:51;-18420.50;;;14.59;100.00
24746;BME280;12845;52.042;6.838;2023-05-08T01:22:39;-18419.13;;;14.54;100.00
24746;BME280;12845;52.042;6.838;2023-05-08T01:25:15;-18416.66;;;14.45;100.00
24746;BME280;12845;52.042;6.838;2023-05-08T01:33:19;-18424.59;;;14.75;100.00
24746;BME280;12845;52.042;6.838;2023-05-08T01:35:52;-18419.69;;;14.56;100.00
24746;BME280;12845;52.042;6.838;2023-05-08T01:38:29;-18419.13;;;14.54;100.00
24746;BME280;12845;52.042;6.838;2023-05-08T01:40:59;-18418.03;;;14.50;100.00
24746;BME280;12845;52.042;6.838;2023-05-08T01:46:17;-18413.53;;;14.33;100.00
24746;BME280;12845;52.042;6.838;2023-05-08T01:48:46;-18414.06;;;14.35;100.00
24746;BME280;12845;52.042;6.838;2023-05-08T01:51:16;-18413.94;;;14.35;100.00
24746;BME280;12845;52.042;6.838;2023-05-08T01:53:42;-18414.88;;;14.38;100.00
24746;BME280;12845;52.042;6.838;2023-05-08T01:56:09;-18412.00;;;14.28;100.00
24746;BME280;12845;52.042;6.838;2023-05-08T01:58:35;-18413.78;;;14.34;100.00
24746;BME280;12845;52.042;6.838;2023-05-08T02:01:02;-18412.28;;;14.29;100.00
24746;BME280;12845;52.042;6.838;2023-05-08T02:03:28;-18412.97;;;14.31;100.00
24746;BME280;12845;52.042;6.838;2023-05-08T02:05:55;-18411.47;;;14.26;100.00
24746;BME280;12845;52.042;6.838;2023-05-08T02:08:21;-18410.63;;;14.22;100.00
24746;BME280;12845;52.042;6.838;2023-05-08T02:10:48;-18414.75;;;14.38;100.00
24746;BME280;12845;52.042;6.838;2023-05-08T02:13:14;-18411.31;;;14.25;100.00
24746;BME280;12845;52.042;6.838;2023-05-08T02:15:43;-18406.81;;;14.08;100.00
24746;BME280;12845;52.042;6.838;2023-05-08T02:18:12;-18409.28;;;14.17;100.00
24746;BME280;12845;52.042;6.838;2023-05-08T02:20:39;-18404.75;;;14.00;100.00
24746;BME280;12845;52.042;6.838;2023-05-08T02:23:04;-18405.03;;;14.02;100.00
24746;BME280;12845;52.042;6.838;2023-05-08T02:25:30;-18405.72;;;14.04;100.00
24746;BME280;12845;52.042;6.838;2023-05-08T02:27:56;-18406.25;;;14.06;100.00
24746;BME280;12845;52.042;6.838;2023-05-08T02:30:23;-18403.38;;;13.95;100.00
24746;BME280;12845;52.042;6.838;2023-05-08T02:32:49;-18400.22;;;13.84;100.00
24746;BME280;12845;52.042;6.838;2023-05-08T02:35:16;-18403.09;;;13.94;100.00
24746;BME280;12845;52.042;6.838;2023-05-08T02:37:43;-18401.75;;;13.89;100.00
24746;BME280;12845;52.042;6.838;2023-05-08T02:40:09;-18404.88;;;14.01;100.00
24746;BME280;12845;52.042;6.838;2023-05-08T02:42:36;-18403.38;;;13.95;100.00
24746;BME280;12845;52.042;6.838;2023-05-08T02:45:02;-18403.38;;;13.95;100.00
24746;BME280;12845;52.042;6.838;2023-05-08T02:47:28;-18403.53;;;13.96;100.00
24746;BME280;12845;52.042;6.838;2023-05-08T02:50:07;-18403.25;;;13.95;100.00
24746;BME280;12845;52.042;6.838;2023-05-08T02:52:58;-18403.78;;;13.97;100.00
24746;BME280;12845;52.042;6.838;2023-05-08T02:58:07;-18403.94;;;13.97;100.00
24746;BME280;12845;52.042;6.838;2023-05-08T03:00:36;-18396.41;;;13.69;100.00
24746;BME280;12845;52.042;6.838;2023-05-08T03:03:09;-18397.50;;;13.73;100.00
24746;BME280;12845;52.042;6.838;2023-05-08T03:05:36;-18397.34;;;13.73;100.00
24746;BME280;12845;52.042;6.838;2023-05-08T03:08:03;-18399.41;;;13.81;100.00
24746;BME280;12845;52.042;6.838;2023-05-08T03:10:31;-18394.75;;;13.63;100.00
24746;BME280;12845;52.042;6.838;2023-05-08T03:12:57;-18393.38;;;13.58;100.00
24746;BME280;12845;52.042;6.838;2023-05-08T03:15:28;-18395.31;;;13.65;100.00
24746;BME280;12845;52.042;6.838;2023-05-08T03:17:56;-18390.38;;;13.47;100.00
24746;BME280;12845;52.042;6.838;2023-05-08T03:20:23;-18389.56;;;13.44;100.00
24746;BME280;12845;52.042;6.838;2023-05-08T03:22:50;-18390.09;;;13.46;100.00
24746;BME280;12845;52.042;6.838;2023-05-08T03:25:17;-18387.22;;;13.35;100.00
24746;BME280;12845;52.042;6.838;2023-05-08T03:27:44;-18382.41;;;13.17;100.00
24746;BME280;12845;52.042;6.838;2023-05-08T03:30:10;-18384.88;;;13.26;100.00
24746;BME280;12845;52.042;6.838;2023-05-08T03:32:35;-18383.66;;;13.22;100.00
24746;BME280;12845;52.042;6.838;2023-05-08T03:35:01;-18382.13;;;13.16;100.00
24746;BME280;12845;52.042;6.838;2023-05-08T03:37:27;-18381.72;;;13.15;100.00
24746;BME280;12845;52.042;6.838;2023-05-08T03:39:53;-18383.91;;;13.23;100.00
24746;BME280;12845;52.042;6.838;2023-05-08T03:42:18;-18380.50;;;13.10;100.00
24746;BME280;12845;52.042;6.838;2023-05-08T03:44:48;-18381.03;;;13.12;100.00
24746;BME280;12845;52.042;6.838;2023-05-08T03:47:15;-18380.78;;;13.11;100.00
24746;BME280;12845;52.042;6.838;2023-05-08T03:49:41;-18384.63;;;13.25;100.00
24746;BME280;12845;52.042;6.838;2023-05-08T03:52:06;-18381.31;;;13.13;100.00
24746;BME280;12845;52.042;6.838;2023-05-08T03:54:32;-18381.88;;;13.15;100.00
24746;BME280;12845;52.042;6.838;2023-05-08T03:56:57;-18379.94;;;13.08;100.00
24746;BME280;12845;52.042;6.838;2023-05-08T03:59:25;-18378.31;;;13.02;100.00
24746;BME280;12845;52.042;6.838;2023-05-08T04:04:35;-18382.41;;;13.17;100.00
24746;BME280;12845;52.042;6.838;2023-05-08T04:07:05;-18384.34;;;13.24;100.00
24746;BME280;12845;52.042;6.838;2023-05-08T04:09:42;-18382.41;;;13.17;100.00
24746;BME280;12845;52.042;6.838;2023-05-08T04:14:36;-18374.19;;;12.86;100.00
24746;BME280;12845;52.042;6.838;2023-05-08T04:17:07;-18377.06;;;12.97;100.00
24746;BME280;12845;52.042;6.838;2023-05-08T04:19:35;-18379.94;;;13.08;100.00
24746;BME280;12845;52.042;6.838;2023-05-08T04:22:06;-18377.75;;;13.00;100.00
24746;BME280;12845;52.042;6.838;2023-05-08T04:24:32;-18377.75;;;13.00;100.00
24746;BME280;12845;52.042;6.838;2023-05-08T04:26:59;-18378.03;;;13.01;100.00
24746;BME280;12845;52.042;6.838;2023-05-08T04:29:25;-18379.13;;;13.05;100.00
24746;BME280;12845;52.042;6.838;2023-05-08T04:31:50;-18380.09;;;13.08;100.00
24746;BME280;12845;52.042;6.838;2023-05-08T04:34:16;-18382.69;;;13.18;100.00
24746;BME280;12845;52.042;6.838;2023-05-08T04:36:42;-18387.63;;;13.37;100.00
24746;BME280;12845;52.042;6.838;2023-05-08T04:39:08;-18378.84;;;13.04;100.00
24746;BME280;12845;52.042;6.838;2023-05-08T04:41:33;-18375.97;;;12.93;100.00
24746;BME280;12845;52.042;6.838;2023-05-08T04:43:59;-18376.78;;;12.96;100.00
24746;BME280;12845;52.042;6.838;2023-05-08T04:46:24;-18377.63;;;12.99;100.00
24746;BME280;12845;52.042;6.838;2023-05-08T04:48:50;-18381.47;;;13.14;100.00
24746;BME280;12845;52.042;6.838;2023-05-08T04:51:15;-18379.69;;;13.07;100.00
24746;BME280;12845;52.042;6.838;2023-05-08T04:53:40;-18380.22;;;13.09;100.00
24746;BME280;12845;52.042;6.838;2023-05-08T04:56:05;-18380.91;;;13.12;100.00
24746;BME280;12845;52.042;6.838;2023-05-08T04:58:31;-18384.06;;;13.23;100.00
24746;BME280;12845;52.042;6.838;2023-05-08T05:00:56;-18382.97;;;13.19;100.00
24746;BME280;12845;52.042;6.838;2023-05-08T05:03:21;-18378.72;;;13.03;100.00
24746;BME280;12845;52.042;6.838;2023-05-08T05:05:46;-18377.88;;;13.00;100.00
24746;BME280;12845;52.042;6.838;2023-05-08T05:08:12;-18379.53;;;13.06;100.00
24746;BME280;12845;52.042;6.838;2023-05-08T05:10:37;-18381.88;;;13.15;100.00
24746;BME280;12845;52.042;6.838;2023-05-08T05:13:03;-18386.25;;;13.31;100.00
24746;BME280;12845;52.042;6.838;2023-05-08T05:15:28;-18387.91;;;13.38;100.00
24746;BME280;12845;52.042;6.838;2023-05-08T05:17:53;-18384.63;;;13.25;100.00
24746;BME280;12845;52.042;6.838;2023-05-08T05:20:18;-18382.97;;;13.19;100.00
24746;BME280;12845;52.042;6.838;2023-05-08T05:22:44;-18382.13;;;13.16;100.00
24746;BME280;12845;52.042;6.838;2023-05-08T05:25:09;-18386.53;;;13.32;100.00
24746;BME280;12845;52.042;6.838;2023-05-08T05:27:34;-18390.50;;;13.47;100.00
24746;BME280;12845;52.042;6.838;2023-05-08T05:30:02;-18389.81;;;13.45;100.00
24746;BME280;12845;52.042;6.838;2023-05-08T05:32:28;-18383.91;;;13.23;100.00
24746;BME280;12845;52.042;6.838;2023-05-08T05:34:53;-18385.03;;;13.27;100.00
24746;BME280;12845;52.042;6.838;2023-05-08T05:37:19;-18385.03;;;13.27;100.00
24746;BME280;12845;52.042;6.838;2023-05-08T05:39:44;-18386.81;;;13.34;100.00
24746;BME280;12845;52.042;6.838;2023-05-08T05:42:10;-18387.50;;;13.36;100.00
24746;BME280;12845;52.042;6.838;2023-05-08T05:44:35;-18390.50;;;13.47;100.00
24746;BME280;12845;52.042;6.838;2023-05-08T05:47:01;-18392.69;;;13.56;100.00
24746;BME280;12845;52.042;6.838;2023-05-08T05:49:26;-18390.91;;;13.49;100.00
24746;BME280;12845;52.042;6.838;2023-05-08T05:51:51;-18390.22;;;13.46;100.00
24746;BME280;12845;52.042;6.838;2023-05-08T05:54:16;-18393.25;;;13.58;100.00
24746;BME280;12845;52.042;6.838;2023-05-08T05:56:42;-18395.31;;;13.65;100.00
24746;BME280;12845;52.042;6.838;2023-05-08T05:59:07;-18393.66;;;13.59;100.00
24746;BME280;12845;52.042;6.838;2023-05-08T06:01:32;-18394.06;;;13.61;100.00
24746;BME280;12845;52.042;6.838;2023-05-08T06:03:58;-18396.41;;;13.69;100.00
24746;BME280;12845;52.042;6.838;2023-05-08T06:06:23;-18399.97;;;13.83;100.00
24746;BME280;12845;52.042;6.838;2023-05-08T06:08:48;-18400.22;;;13.84;100.00
24746;BME280;12845;52.042;6.838;2023-05-08T06:11:14;-18400.22;;;13.84;100.00
24746;BME280;12845;52.042;6.838;2023-05-08T06:13:39;-18402.00;;;13.90;100.00
24746;BME280;12845;52.042;6.838;2023-05-08T06:16:05;-18403.78;;;13.97;100.00
24746;BME280;12845;52.042;6.838;2023-05-08T06:18:31;-18404.75;;;14.00;100.00
24746;BME280;12845;52.042;6.838;2023-05-08T06:20:57;-18404.63;;;14.00;100.00
24746;BME280;12845;52.042;6.838;2023-05-08T06:23:22;-18405.84;;;14.05;100.00
24746;BME280;12845;52.042;6.838;2023-05-08T06:25:47;-18407.34;;;14.10;100.00
24746;BME280;12845;52.042;6.838;2023-05-08T06:28:13;-18407.06;;;14.09;100.00
24746;BME280;12845;52.042;6.838;2023-05-08T06:30:38;-18406.94;;;14.09;100.00
24746;BME280;12845;52.042;6.838;2023-05-08T06:33:03;-18407.91;;;14.12;100.00
24746;BME280;12845;52.042;6.838;2023-05-08T06:35:29;-18411.19;;;14.25;100.00
24746;BME280;12845;52.042;6.838;2023-05-08T06:37:54;-18411.06;;;14.24;100.00
24746;BME280;12845;52.042;6.838;2023-05-08T06:40:19;-18413.53;;;14.33;100.00
24746;BME280;12845;52.042;6.838;2023-05-08T06:42:44;-18415.28;;;14.40;100.00
24746;BME280;12845;52.042;6.838;2023-05-08T06:45:10;-18415.84;;;14.42;100.00
24746;BME280;12845;52.042;6.838;2023-05-08T06:47:35;-18417.75;;;14.49;100.00
24746;BME280;12845;52.042;6.838;2023-05-08T06:50:01;-18420.50;;;14.59;100.00
24746;BME280;12845;52.042;6.838;2023-05-08T06:52:26;-18423.25;;;14.70;100.00
24746;BME280;12845;52.042;6.838;2023-05-08T06:54:51;-18424.88;;;14.76;100.00
24746;BME280;12845;52.042;6.838;2023-05-08T06:57:16;-18429.13;;;14.92;100.00
24746;BME280;12845;52.042;6.838;2023-05-08T06:59:42;-18430.63;;;14.97;100.00
24746;BME280;12845;52.042;6.838;2023-05-08T07:02:07;-18428.72;;;14.90;100.00
24746;BME280;12845;52.042;6.838;2023-05-08T07:04:34;-18426.25;;;14.81;100.00
24746;BME280;12845;52.042;6.838;2023-05-08T07:06:59;-18426.81;;;14.83;100.00
24746;BME280;12845;52.042;6.838;2023-05-08T07:09:24;-18429.81;;;14.94;100.00
24746;BME280;12845;52.042;6.838;2023-05-08T07:11:49;-18435.16;;;15.14;100.00
24746;BME280;12845;52.042;6.838;2023-05-08T07:14:15;-18437.06;;;15.21;100.00
24746;BME280;12845;52.042;6.838;2023-05-08T07:16:40;-18440.34;;;15.33;100.00
24746;BME280;12845;52.042;6.838;2023-05-08T07:19:05;-18439.94;;;15.32;100.00
24746;BME280;12845;52.042;6.838;2023-05-08T07:21:30;-18444.19;;;15.48;100.00
24746;BME280;12845;52.042;6.838;2023-05-08T07:23:56;-18447.19;;;15.59;100.00
24746;BME280;12845;52.042;6.838;2023-05-08T07:26:21;-18450.34;;;15.71;100.00
24746;BME280;12845;52.042;6.838;2023-05-08T07:28:46;-18448.13;;;15.63;100.00
24746;BME280;12845;52.042;6.838;2023-05-08T07:31:15;-18449.38;;;15.67;100.00
24746;BME280;12845;52.042;6.838;2023-05-08T07:33:41;-18454.72;;;15.87;100.00
24746;BME280;12845;52.042;6.838;2023-05-08T07:36:07;-18458.25;;;16.00;100.00
24746;BME280;12845;52.042;6.838;2023-05-08T07:38:33;-18458.41;;;16.01;100.00
24746;BME280;12845;52.042;6.838;2023-05-08T07:40:58;-18459.63;;;16.06;100.00
24746;BME280;12845;52.042;6.838;2023-05-08T07:43:25;-18460.84;;;16.10;100.00
24746;BME280;12845;52.042;6.838;2023-05-08T07:45:50;-18461.13;;;16.11;100.00
24746;BME280;12845;52.042;6.838;2023-05-08T07:48:16;-18459.91;;;16.07;100.00
24746;BME280;12845;52.042;6.838;2023-05-08T07:50:41;-18463.03;;;16.18;100.00
24746;BME280;12845;52.042;6.838;2023-05-08T07:53:06;-18465.78;;;16.29;100.00
24746;BME280;12845;52.042;6.838;2023-05-08T07:55:32;-18465.50;;;16.28;100.00
24746;BME280;12845;52.042;6.838;2023-05-08T07:57:57;-18467.81;;;16.36;100.00
24746;BME280;12845;52.042;6.838;2023-05-08T08:00:23;-18473.97;;;16.59;100.00
24746;BME280;12845;52.042;6.838;2023-05-08T08:02:48;-18475.47;;;16.65;100.00
24746;BME280;12845;52.042;6.838;2023-05-08T08:05:13;-18475.75;;;16.66;100.00
24746;BME280;12845;52.042;6.838;2023-05-08T08:07:38;-18477.41;;;16.72;100.00
24746;BME280;12845;52.042;6.838;2023-05-08T08:10:04;-18481.50;;;16.87;100.00
24746;BME280;12845;52.042;6.838;2023-05-08T08:12:29;-18483.13;;;16.94;100.00
24746;BME280;12845;52.042;6.838;2023-05-08T08:14:55;-18487.50;;;17.10;100.00
24746;BME280;12845;52.042;6.838;2023-05-08T08:17:21;-18491.88;;;17.26;100.00
24746;BME280;12845;52.042;6.838;2023-05-08T08:19:46;-18487.50;;;17.10;100.00
24746;BME280;12845;52.042;6.838;2023-05-08T08:22:11;-18488.31;;;17.13;100.00
24746;BME280;12845;52.042;6.838;2023-05-08T08:24:37;-18491.31;;;17.24;100.00
24746;BME280;12845;52.042;6.838;2023-05-08T08:27:02;-18491.59;;;17.25;100.00
24746;BME280;12845;52.042;6.838;2023-05-08T08:29:28;-18497.34;;;17.47;100.00
24746;BME280;12845;52.042;6.838;2023-05-08T08:31:53;-18505.25;;;17.76;100.00
24746;BME280;12845;52.042;6.838;2023-05-08T08:34:18;-18497.47;;;17.47;100.00
24746;BME280;12845;52.042;6.838;2023-05-08T08:36:44;-18499.38;;;17.54;100.00
24746;BME280;12845;52.042;6.838;2023-05-08T08:39:09;-18498.97;;;17.53;100.00
24746;BME280;12845;52.042;6.838;2023-05-08T08:41:34;-18496.91;;;17.45;100.00
24746;BME280;12845;52.042;6.838;2023-05-08T08:43:59;-18501.69;;;17.63;100.00
24746;BME280;12845;52.042;6.838;2023-05-08T08:46:25;-18503.75;;;17.71;100.00
24746;BME280;12845;52.042;6.838;2023-05-08T08:48:52;-18507.44;;;17.85;100.00
24746;BME280;12845;52.042;6.838;2023-05-08T08:51:22;-18508.81;;;17.90;100.00
24746;BME280;12845;52.042;6.838;2023-05-08T08:53:48;-18510.31;;;17.95;100.00
24746;BME280;12845;52.042;6.838;2023-05-08T08:56:18;-18517.53;;;18.22;100.00
24746;BME280;12845;52.042;6.838;2023-05-08T08:58:46;-18521.34;;;18.37;100.00
24746;BME280;12845;52.042;6.838;2023-05-08T09:01:15;-18525.72;;;18.53;100.00
24746;BME280;12845;52.042;6.838;2023-05-08T09:03:41;-18530.63;;;18.71;100.00
24746;BME280;12845;52.042;6.838;2023-05-08T09:06:07;-18530.88;;;18.72;100.00
24746;BME280;12845;52.042;6.838;2023-05-08T09:08:32;-18539.50;;;19.05;100.00
24746;BME280;12845;52.042;6.838;2023-05-08T09:10:58;-18540.44;;;19.08;100.00
24746;BME280;12845;52.042;6.838;2023-05-08T09:13:25;-18545.22;;;19.26;100.00
24746;BME280;12845;52.042;6.838;2023-05-08T09:15:50;-18548.34;;;19.38;100.00
24746;BME280;12845;52.042;6.838;2023-05-08T09:18:16;-18544.53;;;19.24;100.00
24746;BME280;12845;52.042;6.838;2023-05-08T09:20:41;-18545.34;;;19.27;100.00
24746;BME280;12845;52.042;6.838;2023-05-08T09:23:07;-18541.81;;;19.13;100.00
24746;BME280;12845;52.042;6.838;2023-05-08T09:25:42;-18545.88;;;19.29;100.00
24746;BME280;12845;52.042;6.838;2023-05-08T09:28:17;-18547.78;;;19.36;100.00
24746;BME280;12845;52.042;6.838;2023-05-08T09:30:53;-18552.44;;;19.53;100.00
24746;BME280;12845;52.042;6.838;2023-05-08T09:33:19;-18558.69;;;19.77;100.00
24746;BME280;12845;52.042;6.838;2023-05-08T09:35:44;-18562.50;;;19.91;100.00
24746;BME280;12845;52.042;6.838;2023-05-08T09:41:17;-18560.59;;;19.84;100.00
24746;BME280;12845;52.042;6.838;2023-05-08T09:43:42;-18563.59;;;19.95;100.00
24746;BME280;12845;52.042;6.838;2023-05-08T09:48:51;-18568.63;;;20.14;100.00
24746;BME280;12845;52.042;6.838;2023-05-08T09:51:16;-18565.78;;;20.03;100.00
24746;BME280;12845;52.042;6.838;2023-05-08T09:53:42;-18563.88;;;19.96;100.00
24746;BME280;12845;52.042;6.838;2023-05-08T09:56:07;-18569.59;;;20.18;100.00
24746;BME280;12845;52.042;6.838;2023-05-08T09:58:39;-18572.44;;;20.28;100.00
24746;BME280;12845;52.042;6.838;2023-05-08T10:01:06;-18577.22;;;20.46;100.00
24746;BME280;12845;52.042;6.838;2023-05-08T10:03:47;-18583.47;;;20.70;100.00
24746;BME280;12845;52.042;6.838;2023-05-08T10:06:12;-18587.28;;;20.84;100.00
24746;BME280;12845;52.042;6.838;2023-05-08T10:08:38;-18585.91;;;20.79;100.00
24746;BME280;12845;52.042;6.838;2023-05-08T10:11:13;-18584.56;;;20.74;100.00
24746;BME280;12845;52.042;6.838;2023-05-08T10:13:42;-18587.41;;;20.85;100.00
24746;BME280;12845;52.042;6.838;2023-05-08T10:16:14;-18593.00;;;21.06;100.00
24746;BME280;12845;52.042;6.838;2023-05-08T10:18:47;-18599.09;;;21.29;100.00
24746;BME280;12845;52.042;6.838;2023-05-08T10:21:13;-18599.78;;;21.31;100.00
24746;BME280;12845;52.042;6.838;2023-05-08T10:23:39;-18600.06;;;21.32;100.00
24746;BME280;12845;52.042;6.838;2023-05-08T10:26:15;-18601.97;;;21.39;100.00
24746;BME280;12845;52.042;6.838;2023-05-08T10:28:43;-18601.16;;;21.36;100.00
24746;BME280;12845;52.042;6.838;2023-05-08T10:31:13;-18602.09;;;21.40;100.00
24746;BME280;12845;52.042;6.838;2023-05-08T10:33:41;-18598.69;;;21.27;100.00
24746;BME280;12845;52.042;6.838;2023-05-08T10:36:08;-18604.97;;;21.51;100.00
24746;BME280;12845;52.042;6.838;2023-05-08T10:38:34;-18604.16;;;21.48;100.00
24746;BME280;12845;52.042;6.838;2023-05-08T10:41:00;-18606.03;;;21.55;100.00
24746;BME280;12845;52.042;6.838;2023-05-08T10:43:27;-18605.63;;;21.53;100.00
24746;BME280;12845;52.042;6.838;2023-05-08T10:45:52;-18608.34;;;21.63;100.00
24746;BME280;12845;52.042;6.838;2023-05-08T10:48:22;-18612.69;;;21.80;100.00
24746;BME280;12845;52.042;6.838;2023-05-08T10:51:12;-18615.28;;;21.90;100.00
24746;BME280;12845;52.042;6.838;2023-05-08T10:53:45;-18613.13;;;21.81;100.00
24746;BME280;12845;52.042;6.838;2023-05-08T10:56:12;-18611.75;;;21.76;100.00
24746;BME280;12845;52.042;6.838;2023-05-08T10:58:38;-18617.47;;;21.98;100.00
24746;BME280;12845;52.042;6.838;2023-05-08T11:03:36;-18620.03;;;22.07;100.00
24746;BME280;12845;52.042;6.838;2023-05-08T11:06:02;-18618.81;;;22.03;100.00
24746;BME280;12845;52.042;6.838;2023-05-08T11:08:28;-18615.97;;;21.92;100.00
24746;BME280;12845;52.042;6.838;2023-05-08T11:13:29;-18623.72;;;22.21;100.00
24746;BME280;12845;52.042;6.838;2023-05-08T11:15:56;-18625.88;;;22.29;100.00
24746;BME280;12845;52.042;6.838;2023-05-08T11:18:21;-18622.34;;;22.16;100.00
24746;BME280;12845;52.042;6.838;2023-05-08T11:21:05;-18624.25;;;22.23;100.00
24746;BME280;12845;52.042;6.838;2023-05-08T11:23:35;-18627.25;;;22.35;100.00
24746;BME280;12845;52.042;6.838;2023-05-08T11:26:05;-18622.34;;;22.16;100.00
24746;BME280;12845;52.042;6.838;2023-05-08T11:28:31;-18618.28;;;22.01;100.00
24746;BME280;12845;52.042;6.838;2023-05-08T11:31:01;-18621.25;;;22.12;100.00
24746;BME280;12845;52.042;6.838;2023-05-08T11:33:30;-18618.81;;;22.03;100.00
24746;BME280;12845;52.042;6.838;2023-05-08T11:35:59;-18616.38;;;21.94;100.00
24746;BME280;12845;52.042;6.838;2023-05-08T11:41:06;-18625.88;;;22.29;100.00
24746;BME280;12845;52.042;6.838;2023-05-08T11:46:01;-18623.16;;;22.19;100.00
24746;BME280;12845;52.042;6.838;2023-05-08T11:48:28;-18624.38;;;22.24;100.00
24746;BME280;12845;52.042;6.838;2023-05-08T11:50:53;-18617.31;;;21.97;100.00
24746;BME280;12845;52.042;6.838;2023-05-08T11:53:18;-18615.56;;;21.91;100.00
24746;BME280;12845;52.042;6.838;2023-05-08T11:55:53;-18616.25;;;21.93;100.00
24746;BME280;12845;52.042;6.838;2023-05-08T11:58:19;-18621.66;;;22.14;100.00
24746;BME280;12845;52.042;6.838;2023-05-08T12:00:44;-18615.81;;;21.92;100.00
24746;BME280;12845;52.042;6.838;2023-05-08T12:03:11;-18615.97;;;21.92;100.00
24746;BME280;12845;52.042;6.838;2023-05-08T12:05:36;-18613.94;;;21.84;100.00
24746;BME280;12845;52.042;6.838;2023-05-08T12:08:01;-18610.13;;;21.70;100.00
24746;BME280;12845;52.042;6.838;2023-05-08T12:10:28;-18615.81;;;21.92;100.00
24746;BME280;12845;52.042;6.838;2023-05-08T12:12:53;-18620.59;;;22.09;100.00
24746;BME280;12845;52.042;6.838;2023-05-08T12:15:18;-18624.81;;;22.25;100.00
24746;BME280;12845;52.042;6.838;2023-05-08T12:17:43;-18622.75;;;22.18;100.00
24746;BME280;12845;52.042;6.838;2023-05-08T12:20:13;-18622.22;;;22.16;100.00
24746;BME280;12845;52.042;6.838;2023-05-08T12:22:39;-18622.22;;;22.16;100.00
24746;BME280;12845;52.042;6.838;2023-05-08T12:25:05;-18627.25;;;22.35;100.00
24746;BME280;12845;52.042;6.838;2023-05-08T12:27:31;-18628.06;;;22.38;100.00
24746;BME280;12845;52.042;6.838;2023-05-08T12:29:56;-18632.13;;;22.53;100.00
24746;BME280;12845;52.042;6.838;2023-05-08T12:32:22;-18630.22;;;22.46;100.00
24746;BME280;12845;52.042;6.838;2023-05-08T12:34:47;-18630.22;;;22.46;100.00
24746;BME280;12845;52.042;6.838;2023-05-08T12:37:21;-18626.56;;;22.32;100.00
24746;BME280;12845;52.042;6.838;2023-05-08T12:39:47;-18626.16;;;22.30;100.00
24746;BME280;12845;52.042;6.838;2023-05-08T12:42:12;-18624.25;;;22.23;100.00
24746;BME280;12845;52.042;6.838;2023-05-08T12:44:37;-18629.28;;;22.42;100.00
24746;BME280;12845;52.042;6.838;2023-05-08T12:47:03;-18630.63;;;22.47;100.00
24746;BME280;12845;52.042;6.838;2023-05-08T12:49:29;-18624.66;;;22.25;100.00
24746;BME280;12845;52.042;6.838;2023-05-08T12:52:04;-18621.81;;;22.14;100.00
24746;BME280;12845;52.042;6.838;2023-05-08T12:54:31;-18626.03;;;22.30;100.00
24746;BME280;12845;52.042;6.838;2023-05-08T12:56:56;-18626.69;;;22.33;100.00
24746;BME280;12845;52.042;6.838;2023-05-08T12:59:30;-18617.59;;;21.98;100.00
24746;BME280;12845;52.042;6.838;2023-05-08T13:01:55;-18614.88;;;21.88;100.00
24746;BME280;12845;52.042;6.838;2023-05-08T13:04:21;-18612.84;;;21.80;100.00
24746;BME280;12845;52.042;6.838;2023-05-08T13:06:52;-18616.91;;;21.96;100.00
24746;BME280;12845;52.042;6.838;2023-05-08T13:09:18;-18623.97;;;22.22;100.00
24746;BME280;12845;52.042;6.838;2023-05-08T13:11:43;-18624.13;;;22.23;100.00
24746;BME280;12845;52.042;6.838;2023-05-08T13:14:08;-18625.22;;;22.27;100.00